You are listening to:
KLOU Tower - Louisville, Kentucky, United States

KLOU 151853Z 24008KT 10SM VCTS CLR 31/21 A3012 RMK AO2 LTG DSNT N AND NE SLP192 T03060206

If stream does not start automatically press the play button